sensor_id;sensor_type;location;lat;lon;timestamp;P1;durP1;ratioP1;P2;durP2;ratioP2
58842;SDS011;44614;54.356;10.100;2023-05-10T00:00:21;6.53;;;2.70;;
58842;SDS011;44614;54.356;10.100;2023-05-10T00:02:48;3.72;;;1.92;;
58842;SDS011;44614;54.356;10.100;2023-05-10T00:05:14;5.67;;;1.57;;
58842;SDS011;44614;54.356;10.100;2023-05-10T00:07:39;8.93;;;2.73;;
58842;SDS011;44614;54.356;10.100;2023-05-10T00:10:05;6.80;;;2.72;;
58842;SDS011;44614;54.356;10.100;2023-05-10T00:12:31;4.07;;;2.37;;
58842;SDS011;44614;54.356;10.100;2023-05-10T00:14:56;4.80;;;1.92;;
58842;SDS011;44614;54.356;10.100;2023-05-10T00:17:21;4.78;;;2.17;;
58842;SDS011;44614;54.356;10.100;2023-05-10T00:19:47;7.10;;;2.40;;
58842;SDS011;44614;54.356;10.100;2023-05-10T00:22:13;2.67;;;1.80;;
58842;SDS011;44614;54.356;10.100;2023-05-10T00:24:38;6.43;;;2.13;;
58842;SDS011;44614;54.356;10.100;2023-05-10T00:27:04;4.33;;;2.53;;
58842;SDS011;44614;54.356;10.100;2023-05-10T00:29:29;4.18;;;2.17;;
58842;SDS011;44614;54.356;10.100;2023-05-10T00:31:55;3.80;;;1.97;;
58842;SDS011;44614;54.356;10.100;2023-05-10T00:34:21;10.27;;;2.88;;
58842;SDS011;44614;54.356;10.100;2023-05-10T00:36:46;3.23;;;1.93;;
58842;SDS011;44614;54.356;10.100;2023-05-10T00:39:11;3.30;;;1.95;;
58842;SDS011;44614;54.356;10.100;2023-05-10T00:41:37;3.83;;;1.98;;
58842;SDS011;44614;54.356;10.100;2023-05-10T00:44:02;6.97;;;2.70;;
58842;SDS011;44614;54.356;10.100;2023-05-10T00:46:31;4.07;;;2.30;;
58842;SDS011;44614;54.356;10.100;2023-05-10T00:48:57;5.32;;;2.47;;
58842;SDS011;44614;54.356;10.100;2023-05-10T00:51:22;3.33;;;1.90;;
58842;SDS011;44614;54.356;10.100;2023-05-10T00:53:48;4.10;;;2.05;;
58842;SDS011;44614;54.356;10.100;2023-05-10T00:56:15;3.70;;;2.43;;
58842;SDS011;44614;54.356;10.100;2023-05-10T00:58:40;5.45;;;2.38;;
58842;SDS011;44614;54.356;10.100;2023-05-10T01:01:06;4.95;;;2.83;;
58842;SDS011;44614;54.356;10.100;2023-05-10T01:03:32;6.85;;;2.30;;
58842;SDS011;44614;54.356;10.100;2023-05-10T01:05:58;4.45;;;2.15;;
58842;SDS011;44614;54.356;10.100;2023-05-10T01:08:23;7.20;;;2.20;;
58842;SDS011;44614;54.356;10.100;2023-05-10T01:10:49;4.57;;;3.35;;
58842;SDS011;44614;54.356;10.100;2023-05-10T01:13:17;5.95;;;2.20;;
58842;SDS011;44614;54.356;10.100;2023-05-10T01:15:55;5.32;;;1.95;;
58842;SDS011;44614;54.356;10.100;2023-05-10T01:18:21;3.15;;;2.25;;
58842;SDS011;44614;54.356;10.100;2023-05-10T01:20:47;5.18;;;2.50;;
58842;SDS011;44614;54.356;10.100;2023-05-10T01:23:25;6.00;;;2.20;;
58842;SDS011;44614;54.356;10.100;2023-05-10T01:28:48;6.55;;;2.95;;
58842;SDS011;44614;54.356;10.100;2023-05-10T01:34:20;6.22;;;3.40;;
58842;SDS011;44614;54.356;10.100;2023-05-10T01:37:04;5.03;;;2.53;;
58842;SDS011;44614;54.356;10.100;2023-05-10T01:39:42;6.82;;;2.63;;
58842;SDS011;44614;54.356;10.100;2023-05-10T01:42:11;4.20;;;2.20;;
58842;SDS011;44614;54.356;10.100;2023-05-10T01:47:46;3.65;;;2.50;;
58842;SDS011;44614;54.356;10.100;2023-05-10T01:50:25;4.22;;;2.35;;
58842;SDS011;44614;54.356;10.100;2023-05-10T01:52:54;9.40;;;2.72;;
58842;SDS011;44614;54.356;10.100;2023-05-10T01:55:23;7.63;;;3.80;;
58842;SDS011;44614;54.356;10.100;2023-05-10T01:57:53;3.35;;;1.80;;
58842;SDS011;44614;54.356;10.100;2023-05-10T02:00:27;4.63;;;2.20;;
58842;SDS011;44614;54.356;10.100;2023-05-10T02:02:54;5.63;;;2.20;;
58842;SDS011;44614;54.356;10.100;2023-05-10T02:05:20;5.50;;;3.47;;
58842;SDS011;44614;54.356;10.100;2023-05-10T02:07:47;8.10;;;2.45;;
58842;SDS011;44614;54.356;10.100;2023-05-10T02:10:14;5.78;;;2.20;;
58842;SDS011;44614;54.356;10.100;2023-05-10T02:12:42;4.17;;;2.13;;
58842;SDS011;44614;54.356;10.100;2023-05-10T02:15:10;3.40;;;2.33;;
58842;SDS011;44614;54.356;10.100;2023-05-10T02:17:37;4.28;;;2.33;;
58842;SDS011;44614;54.356;10.100;2023-05-10T02:20:04;4.72;;;2.85;;
58842;SDS011;44614;54.356;10.100;2023-05-10T02:22:32;5.05;;;2.20;;
58842;SDS011;44614;54.356;10.100;2023-05-10T02:25:00;4.15;;;2.45;;
58842;SDS011;44614;54.356;10.100;2023-05-10T02:27:27;2.72;;;2.00;;
58842;SDS011;44614;54.356;10.100;2023-05-10T02:29:54;7.53;;;2.67;;
58842;SDS011;44614;54.356;10.100;2023-05-10T02:32:20;7.30;;;2.45;;
58842;SDS011;44614;54.356;10.100;2023-05-10T02:34:47;5.53;;;2.42;;
58842;SDS011;44614;54.356;10.100;2023-05-10T02:37:17;4.97;;;2.33;;
58842;SDS011;44614;54.356;10.100;2023-05-10T02:39:44;6.05;;;2.08;;
58842;SDS011;44614;54.356;10.100;2023-05-10T02:44:38;3.33;;;2.10;;
58842;SDS011;44614;54.356;10.100;2023-05-10T02:47:06;4.60;;;2.38;;
58842;SDS011;44614;54.356;10.100;2023-05-10T02:49:32;6.60;;;2.80;;
58842;SDS011;44614;54.356;10.100;2023-05-10T02:52:00;5.35;;;2.15;;
58842;SDS011;44614;54.356;10.100;2023-05-10T02:54:29;4.50;;;2.90;;
58842;SDS011;44614;54.356;10.100;2023-05-10T02:56:57;5.95;;;2.10;;
58842;SDS011;44614;54.356;10.100;2023-05-10T02:59:27;9.93;;;3.28;;
58842;SDS011;44614;54.356;10.100;2023-05-10T03:01:53;4.30;;;2.38;;
58842;SDS011;44614;54.356;10.100;2023-05-10T03:04:18;8.30;;;2.75;;
58842;SDS011;44614;54.356;10.100;2023-05-10T03:06:44;6.88;;;2.70;;
58842;SDS011;44614;54.356;10.100;2023-05-10T03:09:10;4.95;;;2.78;;
58842;SDS011;44614;54.356;10.100;2023-05-10T03:14:41;5.55;;;2.95;;
58842;SDS011;44614;54.356;10.100;2023-05-10T03:17:35;7.15;;;3.13;;
58842;SDS011;44614;54.356;10.100;2023-05-10T03:20:24;4.15;;;2.45;;
58842;SDS011;44614;54.356;10.100;2023-05-10T03:22:53;5.50;;;2.28;;
58842;SDS011;44614;54.356;10.100;2023-05-10T03:25:24;7.68;;;2.22;;
58842;SDS011;44614;54.356;10.100;2023-05-10T03:27:50;5.72;;;2.38;;
58842;SDS011;44614;54.356;10.100;2023-05-10T03:32:43;6.60;;;2.95;;
58842;SDS011;44614;54.356;10.100;2023-05-10T03:35:09;6.18;;;2.60;;
58842;SDS011;44614;54.356;10.100;2023-05-10T03:40:01;9.82;;;3.33;;
58842;SDS011;44614;54.356;10.100;2023-05-10T03:42:27;5.35;;;2.80;;
58842;SDS011;44614;54.356;10.100;2023-05-10T03:44:52;4.85;;;2.05;;
58842;SDS011;44614;54.356;10.100;2023-05-10T03:47:18;5.72;;;3.05;;
58842;SDS011;44614;54.356;10.100;2023-05-10T03:49:43;7.95;;;3.10;;
58842;SDS011;44614;54.356;10.100;2023-05-10T03:52:08;9.32;;;2.25;;
58842;SDS011;44614;54.356;10.100;2023-05-10T03:54:34;3.53;;;2.25;;
58842;SDS011;44614;54.356;10.100;2023-05-10T03:56:59;4.53;;;2.83;;
58842;SDS011;44614;54.356;10.100;2023-05-10T03:59:25;4.85;;;2.45;;
58842;SDS011;44614;54.356;10.100;2023-05-10T04:01:51;6.18;;;2.85;;
58842;SDS011;44614;54.356;10.100;2023-05-10T04:04:16;3.77;;;2.47;;
58842;SDS011;44614;54.356;10.100;2023-05-10T04:06:43;3.53;;;2.35;;
58842;SDS011;44614;54.356;10.100;2023-05-10T04:09:08;4.65;;;2.95;;
58842;SDS011;44614;54.356;10.100;2023-05-10T04:11:34;4.20;;;2.47;;
58842;SDS011;44614;54.356;10.100;2023-05-10T04:13:59;8.50;;;2.95;;
58842;SDS011;44614;54.356;10.100;2023-05-10T04:16:24;5.45;;;2.60;;
58842;SDS011;44614;54.356;10.100;2023-05-10T04:18:50;4.70;;;2.83;;
58842;SDS011;44614;54.356;10.100;2023-05-10T04:21:15;5.38;;;2.88;;
58842;SDS011;44614;54.356;10.100;2023-05-10T04:23:40;4.65;;;2.80;;
58842;SDS011;44614;54.356;10.100;2023-05-10T04:26:06;4.03;;;2.50;;
58842;SDS011;44614;54.356;10.100;2023-05-10T04:28:31;4.72;;;3.00;;
58842;SDS011;44614;54.356;10.100;2023-05-10T04:31:03;5.50;;;3.28;;
58842;SDS011;44614;54.356;10.100;2023-05-10T04:33:34;5.07;;;2.63;;
58842;SDS011;44614;54.356;10.100;2023-05-10T04:36:00;6.87;;;2.97;;
58842;SDS011;44614;54.356;10.100;2023-05-10T04:38:26;6.35;;;2.53;;
58842;SDS011;44614;54.356;10.100;2023-05-10T04:40:52;7.93;;;2.38;;
58842;SDS011;44614;54.356;10.100;2023-05-10T04:43:17;7.18;;;3.05;;
58842;SDS011;44614;54.356;10.100;2023-05-10T04:45:42;6.45;;;2.65;;
58842;SDS011;44614;54.356;10.100;2023-05-10T04:48:08;4.72;;;2.28;;
58842;SDS011;44614;54.356;10.100;2023-05-10T04:50:33;5.07;;;2.67;;
58842;SDS011;44614;54.356;10.100;2023-05-10T04:52:58;13.85;;;4.55;;
58842;SDS011;44614;54.356;10.100;2023-05-10T04:55:24;4.80;;;3.22;;
58842;SDS011;44614;54.356;10.100;2023-05-10T04:57:50;5.13;;;2.97;;
58842;SDS011;44614;54.356;10.100;2023-05-10T05:00:15;5.43;;;3.25;;
58842;SDS011;44614;54.356;10.100;2023-05-10T05:02:44;5.53;;;2.83;;
58842;SDS011;44614;54.356;10.100;2023-05-10T05:05:10;4.28;;;3.05;;
58842;SDS011;44614;54.356;10.100;2023-05-10T05:07:36;4.07;;;2.85;;
58842;SDS011;44614;54.356;10.100;2023-05-10T05:10:03;5.57;;;2.65;;
58842;SDS011;44614;54.356;10.100;2023-05-10T05:12:29;3.53;;;2.33;;
58842;SDS011;44614;54.356;10.100;2023-05-10T05:14:55;4.07;;;2.58;;
58842;SDS011;44614;54.356;10.100;2023-05-10T05:17:20;6.43;;;2.97;;
58842;SDS011;44614;54.356;10.100;2023-05-10T05:19:46;7.53;;;3.20;;
58842;SDS011;44614;54.356;10.100;2023-05-10T05:22:11;8.13;;;3.05;;
58842;SDS011;44614;54.356;10.100;2023-05-10T05:24:37;6.03;;;2.75;;
58842;SDS011;44614;54.356;10.100;2023-05-10T05:27:03;7.83;;;3.50;;
58842;SDS011;44614;54.356;10.100;2023-05-10T05:29:28;3.60;;;1.95;;
58842;SDS011;44614;54.356;10.100;2023-05-10T05:31:54;4.75;;;2.63;;
58842;SDS011;44614;54.356;10.100;2023-05-10T05:34:19;6.50;;;2.90;;
58842;SDS011;44614;54.356;10.100;2023-05-10T05:36:45;6.53;;;2.90;;
58842;SDS011;44614;54.356;10.100;2023-05-10T05:39:10;7.30;;;3.25;;
58842;SDS011;44614;54.356;10.100;2023-05-10T05:41:36;5.18;;;3.03;;
58842;SDS011;44614;54.356;10.100;2023-05-10T05:44:01;5.75;;;2.85;;
58842;SDS011;44614;54.356;10.100;2023-05-10T05:46:26;4.88;;;3.00;;
58842;SDS011;44614;54.356;10.100;2023-05-10T05:48:52;6.45;;;3.20;;
58842;SDS011;44614;54.356;10.100;2023-05-10T05:51:17;6.70;;;2.78;;
58842;SDS011;44614;54.356;10.100;2023-05-10T05:53:42;5.93;;;2.70;;
58842;SDS011;44614;54.356;10.100;2023-05-10T05:56:08;7.65;;;3.58;;
58842;SDS011;44614;54.356;10.100;2023-05-10T05:58:34;5.15;;;2.75;;
58842;SDS011;44614;54.356;10.100;2023-05-10T06:00:59;9.13;;;3.13;;
58842;SDS011;44614;54.356;10.100;2023-05-10T06:03:25;5.67;;;3.10;;
58842;SDS011;44614;54.356;10.100;2023-05-10T06:05:50;6.23;;;2.93;;
58842;SDS011;44614;54.356;10.100;2023-05-10T06:08:15;4.53;;;3.10;;
58842;SDS011;44614;54.356;10.100;2023-05-10T06:10:41;5.43;;;2.93;;
58842;SDS011;44614;54.356;10.100;2023-05-10T06:13:06;4.90;;;3.17;;
58842;SDS011;44614;54.356;10.100;2023-05-10T06:15:32;5.40;;;2.73;;
58842;SDS011;44614;54.356;10.100;2023-05-10T06:17:57;6.27;;;3.13;;
58842;SDS011;44614;54.356;10.100;2023-05-10T06:20:22;4.10;;;2.20;;
58842;SDS011;44614;54.356;10.100;2023-05-10T06:22:48;6.73;;;3.17;;
58842;SDS011;44614;54.356;10.100;2023-05-10T06:25:13;7.73;;;3.30;;
58842;SDS011;44614;54.356;10.100;2023-05-10T06:27:39;8.60;;;3.70;;
58842;SDS011;44614;54.356;10.100;2023-05-10T06:30:05;5.40;;;3.83;;
58842;SDS011;44614;54.356;10.100;2023-05-10T06:32:31;9.00;;;2.85;;
58842;SDS011;44614;54.356;10.100;2023-05-10T06:34:56;5.83;;;2.97;;
58842;SDS011;44614;54.356;10.100;2023-05-10T06:37:22;6.70;;;3.00;;
58842;SDS011;44614;54.356;10.100;2023-05-10T06:39:47;5.67;;;3.40;;
58842;SDS011;44614;54.356;10.100;2023-05-10T06:42:13;8.13;;;4.00;;
58842;SDS011;44614;54.356;10.100;2023-05-10T06:44:38;10.53;;;3.07;;
58842;SDS011;44614;54.356;10.100;2023-05-10T06:47:04;7.33;;;2.50;;
58842;SDS011;44614;54.356;10.100;2023-05-10T06:49:29;6.13;;;3.17;;
58842;SDS011;44614;54.356;10.100;2023-05-10T06:51:57;5.20;;;2.77;;
58842;SDS011;44614;54.356;10.100;2023-05-10T06:54:22;6.03;;;3.10;;
58842;SDS011;44614;54.356;10.100;2023-05-10T06:56:48;6.47;;;3.10;;
58842;SDS011;44614;54.356;10.100;2023-05-10T06:59:13;6.20;;;3.50;;
58842;SDS011;44614;54.356;10.100;2023-05-10T07:01:40;3.47;;;2.50;;
58842;SDS011;44614;54.356;10.100;2023-05-10T07:04:05;3.77;;;2.33;;
58842;SDS011;44614;54.356;10.100;2023-05-10T07:08:58;5.60;;;2.80;;
58842;SDS011;44614;54.356;10.100;2023-05-10T07:11:23;7.57;;;3.30;;
58842;SDS011;44614;54.356;10.100;2023-05-10T07:13:48;10.27;;;3.00;;
58842;SDS011;44614;54.356;10.100;2023-05-10T07:16:14;6.60;;;2.60;;
58842;SDS011;44614;54.356;10.100;2023-05-10T07:18:39;4.43;;;2.37;;
58842;SDS011;44614;54.356;10.100;2023-05-10T07:21:04;6.37;;;5.77;;
58842;SDS011;44614;54.356;10.100;2023-05-10T07:23:30;6.10;;;3.20;;
58842;SDS011;44614;54.356;10.100;2023-05-10T07:25:55;7.70;;;3.27;;
58842;SDS011;44614;54.356;10.100;2023-05-10T07:28:22;7.40;;;2.75;;
58842;SDS011;44614;54.356;10.100;2023-05-10T07:30:48;6.03;;;3.30;;
58842;SDS011;44614;54.356;10.100;2023-05-10T07:33:13;4.53;;;2.40;;
58842;SDS011;44614;54.356;10.100;2023-05-10T07:35:39;11.90;;;3.73;;
58842;SDS011;44614;54.356;10.100;2023-05-10T07:38:04;5.27;;;3.00;;
58842;SDS011;44614;54.356;10.100;2023-05-10T07:40:30;5.43;;;2.67;;
58842;SDS011;44614;54.356;10.100;2023-05-10T07:42:56;9.20;;;3.00;;
58842;SDS011;44614;54.356;10.100;2023-05-10T07:45:21;6.73;;;2.73;;
58842;SDS011;44614;54.356;10.100;2023-05-10T07:47:47;7.07;;;2.37;;
58842;SDS011;44614;54.356;10.100;2023-05-10T07:50:12;5.70;;;2.67;;
58842;SDS011;44614;54.356;10.100;2023-05-10T07:52:38;7.60;;;3.23;;
58842;SDS011;44614;54.356;10.100;2023-05-10T07:55:03;7.00;;;2.33;;
58842;SDS011;44614;54.356;10.100;2023-05-10T07:57:29;5.07;;;2.73;;
58842;SDS011;44614;54.356;10.100;2023-05-10T07:59:55;5.75;;;3.45;;
58842;SDS011;44614;54.356;10.100;2023-05-10T08:02:20;7.23;;;3.10;;
58842;SDS011;44614;54.356;10.100;2023-05-10T08:04:46;4.03;;;2.50;;
58842;SDS011;44614;54.356;10.100;2023-05-10T08:07:11;4.97;;;2.70;;
58842;SDS011;44614;54.356;10.100;2023-05-10T08:09:36;7.33;;;2.73;;
58842;SDS011;44614;54.356;10.100;2023-05-10T08:12:02;9.83;;;3.33;;
58842;SDS011;44614;54.356;10.100;2023-05-10T08:14:28;7.23;;;2.97;;
58842;SDS011;44614;54.356;10.100;2023-05-10T08:16:53;4.03;;;2.60;;
58842;SDS011;44614;54.356;10.100;2023-05-10T08:19:19;6.37;;;2.53;;
58842;SDS011;44614;54.356;10.100;2023-05-10T08:21:46;5.32;;;3.13;;
58842;SDS011;44614;54.356;10.100;2023-05-10T08:24:11;5.37;;;2.37;;
58842;SDS011;44614;54.356;10.100;2023-05-10T08:26:37;6.03;;;3.00;;
58842;SDS011;44614;54.356;10.100;2023-05-10T08:29:02;5.03;;;2.40;;
58842;SDS011;44614;54.356;10.100;2023-05-10T08:31:27;5.47;;;2.73;;
58842;SDS011;44614;54.356;10.100;2023-05-10T08:33:53;5.10;;;3.20;;
58842;SDS011;44614;54.356;10.100;2023-05-10T08:36:18;6.23;;;3.10;;
58842;SDS011;44614;54.356;10.100;2023-05-10T08:38:55;4.38;;;2.47;;
58842;SDS011;44614;54.356;10.100;2023-05-10T08:41:21;3.95;;;3.10;;
58842;SDS011;44614;54.356;10.100;2023-05-10T08:43:49;10.70;;;2.83;;
58842;SDS011;44614;54.356;10.100;2023-05-10T08:46:16;7.65;;;2.60;;
58842;SDS011;44614;54.356;10.100;2023-05-10T08:48:42;8.68;;;3.35;;
58842;SDS011;44614;54.356;10.100;2023-05-10T08:51:18;5.00;;;2.25;;
58842;SDS011;44614;54.356;10.100;2023-05-10T08:53:45;5.05;;;2.97;;
58842;SDS011;44614;54.356;10.100;2023-05-10T08:56:11;6.72;;;3.40;;
58842;SDS011;44614;54.356;10.100;2023-05-10T08:58:37;5.40;;;2.50;;
58842;SDS011;44614;54.356;10.100;2023-05-10T09:01:05;5.05;;;2.92;;
58842;SDS011;44614;54.356;10.100;2023-05-10T09:03:31;6.47;;;2.80;;
58842;SDS011;44614;54.356;10.100;2023-05-10T09:05:56;6.53;;;3.17;;
58842;SDS011;44614;54.356;10.100;2023-05-10T09:08:25;3.20;;;2.30;;
58842;SDS011;44614;54.356;10.100;2023-05-10T09:10:50;8.88;;;3.58;;
58842;SDS011;44614;54.356;10.100;2023-05-10T09:13:17;5.00;;;2.25;;
58842;SDS011;44614;54.356;10.100;2023-05-10T09:15:44;5.28;;;3.08;;
58842;SDS011;44614;54.356;10.100;2023-05-10T09:18:10;4.78;;;2.38;;
58842;SDS011;44614;54.356;10.100;2023-05-10T09:20:36;12.82;;;3.60;;
58842;SDS011;44614;54.356;10.100;2023-05-10T09:23:01;5.70;;;3.23;;
58842;SDS011;44614;54.356;10.100;2023-05-10T09:25:27;5.30;;;2.83;;
58842;SDS011;44614;54.356;10.100;2023-05-10T09:27:52;5.17;;;3.20;;
58842;SDS011;44614;54.356;10.100;2023-05-10T09:30:28;6.40;;;3.03;;
58842;SDS011;44614;54.356;10.100;2023-05-10T09:32:54;7.47;;;2.90;;
58842;SDS011;44614;54.356;10.100;2023-05-10T09:35:21;5.10;;;2.92;;
58842;SDS011;44614;54.356;10.100;2023-05-10T09:37:49;4.65;;;2.65;;
58842;SDS011;44614;54.356;10.100;2023-05-10T09:40:23;7.45;;;3.63;;
58842;SDS011;44614;54.356;10.100;2023-05-10T09:45:25;4.10;;;2.50;;
58842;SDS011;44614;54.356;10.100;2023-05-10T09:47:51;5.30;;;2.58;;
58842;SDS011;44614;54.356;10.100;2023-05-10T09:50:17;7.00;;;3.20;;
58842;SDS011;44614;54.356;10.100;2023-05-10T09:52:47;7.75;;;3.60;;
58842;SDS011;44614;54.356;10.100;2023-05-10T09:55:22;5.13;;;2.85;;
58842;SDS011;44614;54.356;10.100;2023-05-10T09:57:49;7.47;;;2.75;;
58842;SDS011;44614;54.356;10.100;2023-05-10T10:00:24;6.25;;;3.00;;
58842;SDS011;44614;54.356;10.100;2023-05-10T10:02:56;7.80;;;2.90;;
58842;SDS011;44614;54.356;10.100;2023-05-10T10:05:29;7.35;;;3.03;;
58842;SDS011;44614;54.356;10.100;2023-05-10T10:07:56;5.72;;;2.95;;
58842;SDS011;44614;54.356;10.100;2023-05-10T10:10:23;7.10;;;3.10;;
58842;SDS011;44614;54.356;10.100;2023-05-10T10:12:49;6.60;;;3.03;;
58842;SDS011;44614;54.356;10.100;2023-05-10T10:15:15;6.07;;;3.67;;
58842;SDS011;44614;54.356;10.100;2023-05-10T10:17:41;5.82;;;3.33;;
58842;SDS011;44614;54.356;10.100;2023-05-10T10:20:08;6.00;;;3.20;;
58842;SDS011;44614;54.356;10.100;2023-05-10T10:22:34;6.18;;;2.88;;
58842;SDS011;44614;54.356;10.100;2023-05-10T10:25:00;5.68;;;2.78;;
58842;SDS011;44614;54.356;10.100;2023-05-10T10:36:05;5.70;;;2.63;;
58842;SDS011;44614;54.356;10.100;2023-05-10T10:41:31;5.18;;;3.00;;
58842;SDS011;44614;54.356;10.100;2023-05-10T10:49:23;6.60;;;2.92;;
58842;SDS011;44614;54.356;10.100;2023-05-10T10:54:40;9.57;;;2.90;;
58842;SDS011;44614;54.356;10.100;2023-05-10T10:57:13;6.57;;;2.88;;
58842;SDS011;44614;54.356;10.100;2023-05-10T10:59:42;4.72;;;2.83;;
58842;SDS011;44614;54.356;10.100;2023-05-10T11:02:09;6.28;;;3.65;;
58842;SDS011;44614;54.356;10.100;2023-05-10T11:04:43;4.07;;;2.45;;
58842;SDS011;44614;54.356;10.100;2023-05-10T11:07:17;8.10;;;3.55;;
58842;SDS011;44614;54.356;10.100;2023-05-10T11:09:44;7.30;;;4.30;;
58842;SDS011;44614;54.356;10.100;2023-05-10T11:12:12;7.70;;;3.13;;
58842;SDS011;44614;54.356;10.100;2023-05-10T11:14:37;4.83;;;2.93;;
58842;SDS011;44614;54.356;10.100;2023-05-10T11:17:08;9.53;;;3.60;;
58842;SDS011;44614;54.356;10.100;2023-05-10T11:20:06;4.93;;;2.67;;
58842;SDS011;44614;54.356;10.100;2023-05-10T11:22:48;5.50;;;2.88;;
58842;SDS011;44614;54.356;10.100;2023-05-10T11:25:15;6.78;;;2.88;;
58842;SDS011;44614;54.356;10.100;2023-05-10T11:27:41;3.57;;;2.57;;
58842;SDS011;44614;54.356;10.100;2023-05-10T11:30:07;9.13;;;3.47;;
58842;SDS011;44614;54.356;10.100;2023-05-10T11:32:36;7.68;;;3.38;;
58842;SDS011;44614;54.356;10.100;2023-05-10T11:35:09;4.45;;;3.03;;
58842;SDS011;44614;54.356;10.100;2023-05-10T11:37:36;9.20;;;3.47;;
58842;SDS011;44614;54.356;10.100;2023-05-10T11:40:06;6.38;;;3.15;;
58842;SDS011;44614;54.356;10.100;2023-05-10T11:42:34;6.95;;;3.60;;
58842;SDS011;44614;54.356;10.100;2023-05-10T11:45:02;6.40;;;4.25;;
58842;SDS011;44614;54.356;10.100;2023-05-10T11:47:27;11.40;;;3.83;;
58842;SDS011;44614;54.356;10.100;2023-05-10T11:49:52;3.20;;;2.33;;
58842;SDS011;44614;54.356;10.100;2023-05-10T11:52:18;8.57;;;3.00;;
58842;SDS011;44614;54.356;10.100;2023-05-10T11:57:18;5.13;;;3.08;;
58842;SDS011;44614;54.356;10.100;2023-05-10T11:59:45;7.10;;;3.17;;
58842;SDS011;44614;54.356;10.100;2023-05-10T12:02:11;6.70;;;2.80;;
58842;SDS011;44614;54.356;10.100;2023-05-10T12:04:37;7.82;;;3.00;;
58842;SDS011;44614;54.356;10.100;2023-05-10T12:07:02;8.80;;;3.40;;
58842;SDS011;44614;54.356;10.100;2023-05-10T12:09:28;10.93;;;3.27;;
58842;SDS011;44614;54.356;10.100;2023-05-10T12:11:55;6.87;;;3.87;;
58842;SDS011;44614;54.356;10.100;2023-05-10T12:14:24;5.72;;;2.90;;
58842;SDS011;44614;54.356;10.100;2023-05-10T12:16:49;4.90;;;2.90;;
58842;SDS011;44614;54.356;10.100;2023-05-10T12:19:18;8.70;;;2.93;;
58842;SDS011;44614;54.356;10.100;2023-05-10T12:21:45;7.65;;;2.80;;
58842;SDS011;44614;54.356;10.100;2023-05-10T12:24:10;8.07;;;3.57;;
58842;SDS011;44614;54.356;10.100;2023-05-10T12:26:36;5.37;;;3.13;;
58842;SDS011;44614;54.356;10.100;2023-05-10T12:29:11;6.00;;;2.90;;
58842;SDS011;44614;54.356;10.100;2023-05-10T12:31:56;3.90;;;2.80;;
58842;SDS011;44614;54.356;10.100;2023-05-10T12:34:35;10.43;;;4.05;;
58842;SDS011;44614;54.356;10.100;2023-05-10T12:37:01;6.82;;;3.15;;
58842;SDS011;44614;54.356;10.100;2023-05-10T12:39:38;7.05;;;3.53;;
58842;SDS011;44614;54.356;10.100;2023-05-10T12:42:04;7.75;;;3.65;;
58842;SDS011;44614;54.356;10.100;2023-05-10T12:44:30;7.57;;;4.57;;
58842;SDS011;44614;54.356;10.100;2023-05-10T12:46:55;11.03;;;4.80;;
58842;SDS011;44614;54.356;10.100;2023-05-10T12:49:20;12.43;;;4.83;;
58842;SDS011;44614;54.356;10.100;2023-05-10T12:51:45;9.10;;;4.83;;
58842;SDS011;44614;54.356;10.100;2023-05-10T12:54:11;9.13;;;4.53;;
58842;SDS011;44614;54.356;10.100;2023-05-10T12:56:36;10.57;;;5.27;;
58842;SDS011;44614;54.356;10.100;2023-05-10T12:59:02;10.57;;;5.73;;
58842;SDS011;44614;54.356;10.100;2023-05-10T13:01:27;11.20;;;6.10;;
58842;SDS011;44614;54.356;10.100;2023-05-10T13:03:53;9.60;;;5.23;;
58842;SDS011;44614;54.356;10.100;2023-05-10T13:06:18;8.43;;;5.00;;
58842;SDS011;44614;54.356;10.100;2023-05-10T13:08:43;11.87;;;6.03;;
58842;SDS011;44614;54.356;10.100;2023-05-10T13:11:09;8.60;;;5.53;;
58842;SDS011;44614;54.356;10.100;2023-05-10T13:13:34;8.87;;;4.73;;
58842;SDS011;44614;54.356;10.100;2023-05-10T13:15:59;10.73;;;5.67;;
58842;SDS011;44614;54.356;10.100;2023-05-10T13:18:25;10.80;;;5.43;;
58842;SDS011;44614;54.356;10.100;2023-05-10T13:20:51;11.38;;;6.32;;
58842;SDS011;44614;54.356;10.100;2023-05-10T13:23:16;7.70;;;4.70;;
58842;SDS011;44614;54.356;10.100;2023-05-10T13:25:41;8.47;;;4.93;;
58842;SDS011;44614;54.356;10.100;2023-05-10T13:28:06;10.43;;;4.83;;
58842;SDS011;44614;54.356;10.100;2023-05-10T13:30:32;10.10;;;5.07;;
58842;SDS011;44614;54.356;10.100;2023-05-10T13:32:57;8.77;;;4.93;;
58842;SDS011;44614;54.356;10.100;2023-05-10T13:35:22;8.27;;;5.03;;
58842;SDS011;44614;54.356;10.100;2023-05-10T13:37:48;11.73;;;5.60;;
58842;SDS011;44614;54.356;10.100;2023-05-10T13:40:13;11.40;;;5.57;;
58842;SDS011;44614;54.356;10.100;2023-05-10T13:42:40;8.90;;;5.03;;
58842;SDS011;44614;54.356;10.100;2023-05-10T13:45:06;10.27;;;5.23;;
58842;SDS011;44614;54.356;10.100;2023-05-10T13:47:31;10.13;;;6.63;;
58842;SDS011;44614;54.356;10.100;2023-05-10T13:49:57;12.23;;;6.00;;
58842;SDS011;44614;54.356;10.100;2023-05-10T13:52:23;11.05;;;6.18;;
58842;SDS011;44614;54.356;10.100;2023-05-10T13:54:48;11.57;;;6.23;;
58842;SDS011;44614;54.356;10.100;2023-05-10T13:57:14;14.23;;;6.83;;
58842;SDS011;44614;54.356;10.100;2023-05-10T13:59:41;13.75;;;5.05;;
58842;SDS011;44614;54.356;10.100;2023-05-10T14:02:07;8.67;;;5.17;;
58842;SDS011;44614;54.356;10.100;2023-05-10T14:04:32;9.97;;;5.93;;
58842;SDS011;44614;54.356;10.100;2023-05-10T14:06:59;11.65;;;5.43;;
58842;SDS011;44614;54.356;10.100;2023-05-10T14:09:24;11.37;;;6.37;;
58842;SDS011;44614;54.356;10.100;2023-05-10T14:11:49;9.13;;;5.23;;
58842;SDS011;44614;54.356;10.100;2023-05-10T14:14:15;9.33;;;5.73;;
58842;SDS011;44614;54.356;10.100;2023-05-10T14:16:44;10.17;;;5.47;;
58842;SDS011;44614;54.356;10.100;2023-05-10T14:19:09;11.65;;;5.47;;
58842;SDS011;44614;54.356;10.100;2023-05-10T14:21:36;9.38;;;5.53;;
58842;SDS011;44614;54.356;10.100;2023-05-10T14:24:02;11.37;;;6.03;;
58842;SDS011;44614;54.356;10.100;2023-05-10T14:26:27;8.87;;;5.63;;
58842;SDS011;44614;54.356;10.100;2023-05-10T14:28:53;12.03;;;5.87;;
58842;SDS011;44614;54.356;10.100;2023-05-10T14:31:18;10.30;;;5.83;;
58842;SDS011;44614;54.356;10.100;2023-05-10T14:33:45;9.70;;;5.20;;
58842;SDS011;44614;54.356;10.100;2023-05-10T14:36:11;13.95;;;5.63;;
58842;SDS011;44614;54.356;10.100;2023-05-10T14:38:36;12.17;;;5.80;;
58842;SDS011;44614;54.356;10.100;2023-05-10T14:41:02;12.07;;;6.60;;
58842;SDS011;44614;54.356;10.100;2023-05-10T14:43:27;9.87;;;5.73;;
58842;SDS011;44614;54.356;10.100;2023-05-10T14:45:53;13.10;;;5.90;;
58842;SDS011;44614;54.356;10.100;2023-05-10T14:48:18;14.57;;;6.47;;
58842;SDS011;44614;54.356;10.100;2023-05-10T14:50:44;10.30;;;6.00;;
58842;SDS011;44614;54.356;10.100;2023-05-10T14:53:10;11.30;;;6.25;;
58842;SDS011;44614;54.356;10.100;2023-05-10T14:55:35;10.40;;;5.33;;
58842;SDS011;44614;54.356;10.100;2023-05-10T14:58:01;9.33;;;5.27;;
58842;SDS011;44614;54.356;10.100;2023-05-10T15:00:28;12.80;;;5.18;;
58842;SDS011;44614;54.356;10.100;2023-05-10T15:02:54;11.20;;;5.97;;
58842;SDS011;44614;54.356;10.100;2023-05-10T15:05:19;9.67;;;5.63;;
58842;SDS011;44614;54.356;10.100;2023-05-10T15:07:44;7.87;;;4.27;;
58842;SDS011;44614;54.356;10.100;2023-05-10T15:10:10;9.37;;;4.27;;
58842;SDS011;44614;54.356;10.100;2023-05-10T15:12:36;14.00;;;5.50;;
58842;SDS011;44614;54.356;10.100;2023-05-10T15:15:02;10.33;;;5.47;;
58842;SDS011;44614;54.356;10.100;2023-05-10T15:17:27;8.57;;;4.50;;